sensor_id;sensor_type;location;lat;lon;timestamp;pressure;altitude;pressure_sealevel;temperature;humidity
40171;BME280;37650;52.790;18.268;2023-02-17T00:01:52;100826.69;;;4.76;100.00
40171;BME280;37650;52.790;18.268;2023-02-17T00:05:13;100826.89;;;4.73;100.00
40171;BME280;37650;52.790;18.268;2023-02-17T00:08:35;100828.48;;;4.67;100.00
40171;BME280;37650;52.790;18.268;2023-02-17T00:11:56;100822.42;;;4.63;100.00
40171;BME280;37650;52.790;18.268;2023-02-17T00:15:17;100818.95;;;4.63;100.00
40171;BME280;37650;52.790;18.268;2023-02-17T00:18:38;100815.99;;;4.64;100.00
40171;BME280;37650;52.790;18.268;2023-02-17T00:22:01;100816.84;;;4.66;100.00
40171;BME280;37650;52.790;18.268;2023-02-17T00:25:22;100814.23;;;4.67;100.00
40171;BME280;37650;52.790;18.268;2023-02-17T00:28:44;100808.69;;;4.64;100.00
40171;BME280;37650;52.790;18.268;2023-02-17T00:32:05;100809.05;;;4.61;100.00
40171;BME280;37650;52.790;18.268;2023-02-17T00:35:30;100807.50;;;4.58;100.00
40171;BME280;37650;52.790;18.268;2023-02-17T00:38:53;100801.61;;;4.55;100.00
40171;BME280;37650;52.790;18.268;2023-02-17T00:42:17;100803.55;;;4.52;100.00
40171;BME280;37650;52.790;18.268;2023-02-17T00:45:38;100806.54;;;4.47;100.00
40171;BME280;37650;52.790;18.268;2023-02-17T00:48:59;100806.71;;;4.45;100.00
40171;BME280;37650;52.790;18.268;2023-02-17T00:52:21;100801.52;;;4.41;100.00
40171;BME280;37650;52.790;18.268;2023-02-17T00:55:42;100792.68;;;4.37;100.00
40171;BME280;37650;52.790;18.268;2023-02-17T00:59:04;100787.30;;;4.35;100.00
40171;BME280;37650;52.790;18.268;2023-02-17T01:02:28;100779.67;;;4.33;100.00
40171;BME280;37650;52.790;18.268;2023-02-17T01:05:50;100779.17;;;4.31;100.00
40171;BME280;37650;52.790;18.268;2023-02-17T01:09:13;100783.35;;;4.29;100.00
40171;BME280;37650;52.790;18.268;2023-02-17T01:12:35;100778.85;;;4.27;100.00
40171;BME280;37650;52.790;18.268;2023-02-17T01:16:00;100778.34;;;4.23;100.00
40171;BME280;37650;52.790;18.268;2023-02-17T01:19:22;100770.36;;;4.21;100.00
40171;BME280;37650;52.790;18.268;2023-02-17T01:22:43;100767.60;;;4.17;100.00
40171;BME280;37650;52.790;18.268;2023-02-17T01:26:05;100761.21;;;4.11;100.00
40171;BME280;37650;52.790;18.268;2023-02-17T01:29:26;100759.48;;;4.08;100.00
40171;BME280;37650;52.790;18.268;2023-02-17T01:32:47;100749.60;;;4.05;100.00
40171;BME280;37650;52.790;18.268;2023-02-17T01:36:12;100746.14;;;4.04;100.00
40171;BME280;37650;52.790;18.268;2023-02-17T01:39:34;100738.52;;;4.01;100.00
40171;BME280;37650;52.790;18.268;2023-02-17T01:42:55;100732.97;;;3.99;100.00
40171;BME280;37650;52.790;18.268;2023-02-17T01:46:16;100724.65;;;3.97;100.00
40171;BME280;37650;52.790;18.268;2023-02-17T01:49:40;100719.45;;;3.95;100.00
40171;BME280;37650;52.790;18.268;2023-02-17T01:53:04;100717.35;;;3.98;100.00
40171;BME280;37650;52.790;18.268;2023-02-17T01:56:29;100707.80;;;3.98;100.00
40171;BME280;37650;52.790;18.268;2023-02-17T01:59:52;100706.07;;;3.99;100.00
40171;BME280;37650;52.790;18.268;2023-02-17T02:03:14;100706.59;;;3.99;100.00
40171;BME280;37650;52.790;18.268;2023-02-17T02:06:37;100704.67;;;4.00;100.00
40171;BME280;37650;52.790;18.268;2023-02-17T02:10:01;100701.19;;;4.01;100.00
40171;BME280;37650;52.790;18.268;2023-02-17T02:13:22;100697.88;;;4.03;100.00
40171;BME280;37650;52.790;18.268;2023-02-17T02:32:42;100673.61;;;4.00;100.00
40171;BME280;37650;52.790;18.268;2023-02-17T02:36:15;100672.05;;;3.99;100.00
40171;BME280;37650;52.790;18.268;2023-02-17T02:39:42;100667.53;;;3.99;100.00
40171;BME280;37650;52.790;18.268;2023-02-17T02:43:26;100663.52;;;4.02;100.00
40171;BME280;37650;52.790;18.268;2023-02-17T02:46:57;100668.74;;;3.99;100.00
40171;BME280;37650;52.790;18.268;2023-02-17T02:58:04;100664.73;;;4.04;100.00
40171;BME280;37650;52.790;18.268;2023-02-17T03:09:21;100656.71;;;4.07;100.00
40171;BME280;37650;52.790;18.268;2023-02-17T03:12:44;100656.90;;;4.05;100.00
40171;BME280;37650;52.790;18.268;2023-02-17T03:16:06;100654.62;;;4.08;100.00
40171;BME280;37650;52.790;18.268;2023-02-17T03:19:31;100655.83;;;4.11;100.00
40171;BME280;37650;52.790;18.268;2023-02-17T03:22:53;100654.07;;;4.14;100.00
40171;BME280;37650;52.790;18.268;2023-02-17T03:26:15;100649.36;;;4.16;100.00
40171;BME280;37650;52.790;18.268;2023-02-17T03:29:37;100644.14;;;4.19;100.00
40171;BME280;37650;52.790;18.268;2023-02-17T03:33:01;100639.63;;;4.20;100.00
40171;BME280;37650;52.790;18.268;2023-02-17T03:36:22;100639.27;;;4.21;100.00
40171;BME280;37650;52.790;18.268;2023-02-17T03:39:44;100640.45;;;4.25;100.00
40171;BME280;37650;52.790;18.268;2023-02-17T03:43:06;100634.70;;;4.28;100.00
40171;BME280;37650;52.790;18.268;2023-02-17T03:46:28;100636.77;;;4.30;100.00
40171;BME280;37650;52.790;18.268;2023-02-17T03:49:50;100631.59;;;4.27;100.00
40171;BME280;37650;52.790;18.268;2023-02-17T03:53:12;100627.77;;;4.25;100.00
40171;BME280;37650;52.790;18.268;2023-02-17T03:56:37;100628.48;;;4.23;100.00
40171;BME280;37650;52.790;18.268;2023-02-17T03:59:59;100628.31;;;4.22;100.00
40171;BME280;37650;52.790;18.268;2023-02-17T04:03:21;100628.14;;;4.22;100.00
40171;BME280;37650;52.790;18.268;2023-02-17T04:06:42;100623.82;;;4.20;100.00
40171;BME280;37650;52.790;18.268;2023-02-17T04:10:04;100621.91;;;4.19;100.00
40171;BME280;37650;52.790;18.268;2023-02-17T04:13:26;100608.54;;;4.21;100.00
40171;BME280;37650;52.790;18.268;2023-02-17T04:16:51;100604.19;;;4.21;100.00
40171;BME280;37650;52.790;18.268;2023-02-17T04:20:13;100594.61;;;4.23;100.00
40171;BME280;37650;52.790;18.268;2023-02-17T04:23:35;100585.06;;;4.22;100.00
40171;BME280;37650;52.790;18.268;2023-02-17T04:26:57;100579.71;;;4.20;100.00
40171;BME280;37650;52.790;18.268;2023-02-17T04:30:20;100581.63;;;4.18;100.00
40171;BME280;37650;52.790;18.268;2023-02-17T04:33:41;100575.90;;;4.18;100.00
40171;BME280;37650;52.790;18.268;2023-02-17T04:37:06;100565.84;;;4.18;100.00
40171;BME280;37650;52.790;18.268;2023-02-17T04:40:27;100563.27;;;4.15;100.00
40171;BME280;37650;52.790;18.268;2023-02-17T04:43:49;100565.36;;;4.12;100.00
40171;BME280;37650;52.790;18.268;2023-02-17T04:47:11;100564.17;;;4.09;100.00
40171;BME280;37650;52.790;18.268;2023-02-17T04:50:33;100562.61;;;4.08;100.00
40171;BME280;37650;52.790;18.268;2023-02-17T04:53:57;100561.05;;;4.09;100.00
40171;BME280;37650;52.790;18.268;2023-02-17T04:57:19;100554.63;;;4.09;100.00
40171;BME280;37650;52.790;18.268;2023-02-17T05:00:46;100550.81;;;4.09;100.00
40171;BME280;37650;52.790;18.268;2023-02-17T05:04:08;100550.12;;;4.07;100.00
40171;BME280;37650;52.790;18.268;2023-02-17T05:07:30;100551.19;;;4.06;100.00
40171;BME280;37650;52.790;18.268;2023-02-17T05:10:52;100549.80;;;4.06;100.00
40171;BME280;37650;52.790;18.268;2023-02-17T05:14:14;100554.12;;;4.06;100.00
40171;BME280;37650;52.790;18.268;2023-02-17T05:17:36;100548.91;;;4.06;100.00
40171;BME280;37650;52.790;18.268;2023-02-17T05:20:58;100546.51;;;4.05;100.00
40171;BME280;37650;52.790;18.268;2023-02-17T05:24:20;100548.42;;;4.03;100.00
40171;BME280;37650;52.790;18.268;2023-02-17T05:27:42;100546.16;;;4.04;100.00
40171;BME280;37650;52.790;18.268;2023-02-17T05:31:04;100537.99;;;4.06;100.00
40171;BME280;37650;52.790;18.268;2023-02-17T05:34:27;100537.80;;;4.07;100.00
40171;BME280;37650;52.790;18.268;2023-02-17T05:37:48;100543.39;;;4.05;100.00
40171;BME280;37650;52.790;18.268;2023-02-17T05:41:10;100541.61;;;4.06;100.00
40171;BME280;37650;52.790;18.268;2023-02-17T05:44:34;100537.62;;;4.08;100.00
40171;BME280;37650;52.790;18.268;2023-02-17T05:47:56;100536.75;;;4.09;100.00
40171;BME280;37650;52.790;18.268;2023-02-17T05:51:18;100533.80;;;4.10;100.00
40171;BME280;37650;52.790;18.268;2023-02-17T05:54:40;100533.27;;;4.09;100.00
40171;BME280;37650;52.790;18.268;2023-02-17T05:58:01;100529.80;;;4.09;100.00
40171;BME280;37650;52.790;18.268;2023-02-17T06:01:24;100526.16;;;4.07;100.00
40171;BME280;37650;52.790;18.268;2023-02-17T06:04:56;100522.34;;;4.07;100.00
40171;BME280;37650;52.790;18.268;2023-02-17T06:08:23;100521.13;;;4.08;100.00
40171;BME280;37650;52.790;18.268;2023-02-17T06:11:45;100518.70;;;4.08;100.00
40171;BME280;37650;52.790;18.268;2023-02-17T06:15:06;100518.04;;;4.06;100.00
40171;BME280;37650;52.790;18.268;2023-02-17T06:18:27;100515.62;;;4.02;100.00
40171;BME280;37650;52.790;18.268;2023-02-17T06:21:49;100514.94;;;4.01;100.00
40171;BME280;37650;52.790;18.268;2023-02-17T06:25:10;100513.70;;;4.01;100.00
40171;BME280;37650;52.790;18.268;2023-02-17T06:28:32;100517.35;;;4.03;100.00
40171;BME280;37650;52.790;18.268;2023-02-17T06:31:53;100520.13;;;4.05;100.00
40171;BME280;37650;52.790;18.268;2023-02-17T06:35:15;100514.40;;;4.03;100.00
40171;BME280;37650;52.790;18.268;2023-02-17T06:38:37;100513.36;;;4.03;100.00
40171;BME280;37650;52.790;18.268;2023-02-17T06:41:58;100512.98;;;4.06;100.00
40171;BME280;37650;52.790;18.268;2023-02-17T06:45:19;100509.13;;;4.10;100.00
40171;BME280;37650;52.790;18.268;2023-02-17T06:48:42;100506.84;;;4.14;100.00
40171;BME280;37650;52.790;18.268;2023-02-17T06:52:03;100506.31;;;4.15;100.00
40171;BME280;37650;52.790;18.268;2023-02-17T06:55:25;100505.23;;;4.18;100.00
40171;BME280;37650;52.790;18.268;2023-02-17T06:58:50;100502.41;;;4.22;100.00
40171;BME280;37650;52.790;18.268;2023-02-17T07:02:13;100504.31;;;4.24;100.00
40171;BME280;37650;52.790;18.268;2023-02-17T07:05:36;100505.17;;;4.26;100.00
40171;BME280;37650;52.790;18.268;2023-02-17T07:08:57;100501.16;;;4.27;100.00
40171;BME280;37650;52.790;18.268;2023-02-17T07:12:18;100502.17;;;4.30;100.00
40171;BME280;37650;52.790;18.268;2023-02-17T07:15:40;100503.04;;;4.33;100.00
40171;BME280;37650;52.790;18.268;2023-02-17T07:19:00;100496.38;;;4.37;100.00
40171;BME280;37650;52.790;18.268;2023-02-17T07:22:22;100492.17;;;4.40;100.00
40171;BME280;37650;52.790;18.268;2023-02-17T07:25:45;100492.17;;;4.42;100.00
40171;BME280;37650;52.790;18.268;2023-02-17T07:29:06;100494.08;;;4.43;100.00
40171;BME280;37650;52.790;18.268;2023-02-17T07:32:27;100491.13;;;4.41;100.00
40171;BME280;37650;52.790;18.268;2023-02-17T07:35:48;100486.95;;;4.42;100.00
40171;BME280;37650;52.790;18.268;2023-02-17T07:39:10;100477.74;;;4.43;100.00
40171;BME280;37650;52.790;18.268;2023-02-17T07:42:31;100478.74;;;4.46;100.00
40171;BME280;37650;52.790;18.268;2023-02-17T07:45:55;100478.39;;;4.48;100.00
40171;BME280;37650;52.790;18.268;2023-02-17T07:49:16;100488.94;;;4.51;100.00
40171;BME280;37650;52.790;18.268;2023-02-17T07:52:43;100492.41;;;4.51;100.00
40171;BME280;37650;52.790;18.268;2023-02-17T07:56:08;100491.75;;;4.48;100.00
40171;BME280;37650;52.790;18.268;2023-02-17T07:59:29;100486.21;;;4.46;100.00
40171;BME280;37650;52.790;18.268;2023-02-17T08:02:51;100480.14;;;4.46;100.00
40171;BME280;37650;52.790;18.268;2023-02-17T08:06:20;100475.80;;;4.45;100.00
40171;BME280;37650;52.790;18.268;2023-02-17T08:09:41;100464.15;;;4.46;100.00
40171;BME280;37650;52.790;18.268;2023-02-17T08:13:23;100458.05;;;4.48;100.00
40171;BME280;37650;52.790;18.268;2023-02-17T08:16:44;100451.23;;;4.51;100.00
40171;BME280;37650;52.790;18.268;2023-02-17T08:20:06;100450.02;;;4.52;100.00
40171;BME280;37650;52.790;18.268;2023-02-17T08:23:27;100450.98;;;4.58;100.00
40171;BME280;37650;52.790;18.268;2023-02-17T08:26:50;100443.45;;;4.64;100.00
40171;BME280;37650;52.790;18.268;2023-02-17T08:30:11;100437.67;;;4.68;100.00
40171;BME280;37650;52.790;18.268;2023-02-17T08:33:33;100432.98;;;4.66;100.00
40171;BME280;37650;52.790;18.268;2023-02-17T08:36:54;100426.73;;;4.67;100.00
40171;BME280;37650;52.790;18.268;2023-02-17T08:40:17;100421.52;;;4.68;100.00
40171;BME280;37650;52.790;18.268;2023-02-17T08:43:42;100416.30;;;4.66;100.00
40171;BME280;37650;52.790;18.268;2023-02-17T08:47:04;100414.54;;;4.69;100.00
40171;BME280;37650;52.790;18.268;2023-02-17T08:50:25;100402.85;;;4.72;100.00
40171;BME280;37650;52.790;18.268;2023-02-17T08:54:02;100400.73;;;4.76;100.00
40171;BME280;37650;52.790;18.268;2023-02-17T08:57:24;100394.60;;;4.79;100.00
40171;BME280;37650;52.790;18.268;2023-02-17T09:00:46;100386.54;;;4.84;100.00
40171;BME280;37650;52.790;18.268;2023-02-17T09:04:08;100377.97;;;4.87;100.00
40171;BME280;37650;52.790;18.268;2023-02-17T09:07:30;100376.55;;;4.89;100.00
40171;BME280;37650;52.790;18.268;2023-02-17T09:10:52;100373.71;;;4.94;100.00
40171;BME280;37650;52.790;18.268;2023-02-17T09:14:13;100377.66;;;4.97;100.00
40171;BME280;37650;52.790;18.268;2023-02-17T09:17:38;100378.08;;;5.05;100.00
40171;BME280;37650;52.790;18.268;2023-02-17T09:21:09;100375.36;;;5.12;100.00
40171;BME280;37650;52.790;18.268;2023-02-17T09:24:41;100366.61;;;5.16;100.00
40171;BME280;37650;52.790;18.268;2023-02-17T09:28:20;100347.98;;;5.17;100.00
40171;BME280;37650;52.790;18.268;2023-02-17T09:31:42;100349.08;;;5.25;100.00
40171;BME280;37650;52.790;18.268;2023-02-17T09:35:05;100358.30;;;5.35;100.00
40171;BME280;37650;52.790;18.268;2023-02-17T09:38:27;100355.90;;;5.43;100.00
40171;BME280;37650;52.790;18.268;2023-02-17T09:41:49;100348.47;;;5.52;100.00
40171;BME280;37650;52.790;18.268;2023-02-17T09:45:34;100354.63;;;5.57;100.00
40171;BME280;37650;52.790;18.268;2023-02-17T09:49:07;100350.95;;;5.59;100.00
40171;BME280;37650;52.790;18.268;2023-02-17T09:52:33;100343.80;;;5.60;100.00
40171;BME280;37650;52.790;18.268;2023-02-17T09:56:00;100339.64;;;5.60;100.00
40171;BME280;37650;52.790;18.268;2023-02-17T09:59:38;100329.83;;;5.62;100.00
40171;BME280;37650;52.790;18.268;2023-02-17T10:03:10;100327.02;;;5.64;100.00
40171;BME280;37650;52.790;18.268;2023-02-17T10:06:40;100325.20;;;5.68;100.00
40171;BME280;37650;52.790;18.268;2023-02-17T10:10:09;100320.93;;;5.72;100.00
40171;BME280;37650;52.790;18.268;2023-02-17T10:13:33;100314.44;;;5.76;100.00
40171;BME280;37650;52.790;18.268;2023-02-17T10:20:56;100296.29;;;5.78;100.00
40171;BME280;37650;52.790;18.268;2023-02-17T10:24:19;100287.40;;;5.80;100.00
40171;BME280;37650;52.790;18.268;2023-02-17T10:32:19;100279.45;;;5.86;100.00
40171;BME280;37650;52.790;18.268;2023-02-17T10:35:16;100275.46;;;5.84;100.00
40171;BME280;37650;52.790;18.268;2023-02-17T10:38:50;100270.23;;;5.84;100.00
40171;BME280;37650;52.790;18.268;2023-02-17T10:42:18;100265.18;;;5.87;100.00
40171;BME280;37650;52.790;18.268;2023-02-17T10:45:43;100261.94;;;5.92;100.00
40171;BME280;37650;52.790;18.268;2023-02-17T10:49:43;100249.04;;;5.93;100.00
40171;BME280;37650;52.790;18.268;2023-02-17T10:53:18;100240.29;;;5.95;100.00
40171;BME280;37650;52.790;18.268;2023-02-17T10:56:47;100223.39;;;5.96;100.00
40171;BME280;37650;52.790;18.268;2023-02-17T11:00:16;100203.95;;;6.01;100.00
40171;BME280;37650;52.790;18.268;2023-02-17T11:03:41;100195.27;;;6.08;100.00
40171;BME280;37650;52.790;18.268;2023-02-17T11:07:13;100188.77;;;6.11;100.00
40171;BME280;37650;52.790;18.268;2023-02-17T11:14:55;100167.04;;;6.17;100.00
40171;BME280;37650;52.790;18.268;2023-02-17T11:18:19;100152.92;;;6.17;100.00
40171;BME280;37650;52.790;18.268;2023-02-17T11:21:42;100141.69;;;6.14;100.00
40171;BME280;37650;52.790;18.268;2023-02-17T11:25:18;100139.54;;;6.16;100.00
40171;BME280;37650;52.790;18.268;2023-02-17T11:28:41;100132.61;;;6.21;100.00
40171;BME280;37650;52.790;18.268;2023-02-17T11:32:05;100122.70;;;6.28;100.00
40171;BME280;37650;52.790;18.268;2023-02-17T11:38:58;100109.44;;;6.37;100.00
40171;BME280;37650;52.790;18.268;2023-02-17T11:55:00;100062.80;;;6.49;100.00
40171;BME280;37650;52.790;18.268;2023-02-17T11:58:48;100059.80;;;6.49;100.00
40171;BME280;37650;52.790;18.268;2023-02-17T12:06:07;100047.45;;;6.56;100.00
40171;BME280;37650;52.790;18.268;2023-02-17T12:25:34;100012.04;;;6.63;100.00
40171;BME280;37650;52.790;18.268;2023-02-17T12:36:17;99988.95;;;6.66;100.00
40171;BME280;37650;52.790;18.268;2023-02-17T12:39:55;99986.52;;;6.66;100.00
40171;BME280;37650;52.790;18.268;2023-02-17T12:47:03;99965.77;;;6.66;100.00
40171;BME280;37650;52.790;18.268;2023-02-17T12:54:19;99942.98;;;6.65;100.00
40171;BME280;37650;52.790;18.268;2023-02-17T12:58:11;99932.66;;;6.66;100.00
40171;BME280;37650;52.790;18.268;2023-02-17T13:01:31;99931.63;;;6.66;100.00
40171;BME280;37650;52.790;18.268;2023-02-17T13:04:55;99920.11;;;6.66;100.00
40171;BME280;37650;52.790;18.268;2023-02-17T13:08:22;99912.36;;;6.69;100.00
40171;BME280;37650;52.790;18.268;2023-02-17T13:11:49;99904.51;;;6.69;100.00
40171;BME280;37650;52.790;18.268;2023-02-17T13:15:32;99897.33;;;6.71;100.00
40171;BME280;37650;52.790;18.268;2023-02-17T13:18:54;99890.44;;;6.74;100.00
40171;BME280;37650;52.790;18.268;2023-02-17T13:22:21;99884.45;;;6.76;100.00
40171;BME280;37650;52.790;18.268;2023-02-17T13:33:58;99852.02;;;6.82;100.00
40171;BME280;37650;52.790;18.268;2023-02-17T13:40:57;99840.55;;;6.86;100.00
40171;BME280;37650;52.790;18.268;2023-02-17T13:47:46;99823.41;;;6.88;100.00
40171;BME280;37650;52.790;18.268;2023-02-17T13:51:24;99815.14;;;6.90;100.00
40171;BME280;37650;52.790;18.268;2023-02-17T13:55:04;99805.67;;;6.92;100.00
40171;BME280;37650;52.790;18.268;2023-02-17T13:58:42;99791.34;;;6.94;100.00
40171;BME280;37650;52.790;18.268;2023-02-17T14:02:19;99770.73;;;6.94;100.00
40171;BME280;37650;52.790;18.268;2023-02-17T14:05:44;99764.73;;;6.96;100.00
40171;BME280;37650;52.790;18.268;2023-02-17T14:09:27;99755.27;;;6.98;100.00
40171;BME280;37650;52.790;18.268;2023-02-17T14:12:51;99748.70;;;7.01;100.00
40171;BME280;37650;52.790;18.268;2023-02-17T14:16:38;99745.70;;;7.03;100.00
40171;BME280;37650;52.790;18.268;2023-02-17T14:20:00;99740.71;;;7.05;100.00
40171;BME280;37650;52.790;18.268;2023-02-17T14:23:21;99732.91;;;7.04;100.00
40171;BME280;37650;52.790;18.268;2023-02-17T14:26:46;99729.85;;;7.07;100.00
40171;BME280;37650;52.790;18.268;2023-02-17T14:30:26;99720.19;;;7.10;100.00
40171;BME280;37650;52.790;18.268;2023-02-17T14:33:57;99707.73;;;7.11;100.00
40171;BME280;37650;52.790;18.268;2023-02-17T14:37:23;99699.09;;;7.14;100.00
40171;BME280;37650;52.790;18.268;2023-02-17T14:40:44;99685.98;;;7.15;100.00
40171;BME280;37650;52.790;18.268;2023-02-17T14:44:06;99678.63;;;7.16;100.00
40171;BME280;37650;52.790;18.268;2023-02-17T14:47:27;99672.67;;;7.16;100.00
40171;BME280;37650;52.790;18.268;2023-02-17T14:50:50;99662.84;;;7.18;100.00
40171;BME280;37650;52.790;18.268;2023-02-17T14:54:15;99659.65;;;7.20;100.00
40171;BME280;37650;52.790;18.268;2023-02-17T14:57:37;99653.02;;;7.21;100.00
40171;BME280;37650;52.790;18.268;2023-02-17T15:00:58;99648.99;;;7.21;100.00
40171;BME280;37650;52.790;18.268;2023-02-17T15:04:21;99636.33;;;7.18;100.00
40171;BME280;37650;52.790;18.268;2023-02-17T15:07:43;99630.57;;;7.18;100.00
40171;BME280;37650;52.790;18.268;2023-02-17T15:11:04;99627.57;;;7.19;100.00
40171;BME280;37650;52.790;18.268;2023-02-17T15:14:26;99624.44;;;7.19;100.00
40171;BME280;37650;52.790;18.268;2023-02-17T15:17:50;99615.20;;;7.19;100.00
40171;BME280;37650;52.790;18.268;2023-02-17T15:21:39;99609.55;;;7.22;100.00
40171;BME280;37650;52.790;18.268;2023-02-17T15:25:16;99600.83;;;7.21;100.00
40171;BME280;37650;52.790;18.268;2023-02-17T15:28:39;99589.00;;;7.20;100.00
40171;BME280;37650;52.790;18.268;2023-02-17T15:32:03;99588.94;;;7.22;100.00
40171;BME280;37650;52.790;18.268;2023-02-17T15:35:30;99586.80;;;7.23;100.00
40171;BME280;37650;52.790;18.268;2023-02-17T15:39:08;99576.75;;;7.26;100.00
40171;BME280;37650;52.790;18.268;2023-02-17T15:42:40;99568.83;;;7.28;100.00
40171;BME280;37650;52.790;18.268;2023-02-17T15:46:08;99567.59;;;7.29;100.00
40171;BME280;37650;52.790;18.268;2023-02-17T15:49:32;99562.77;;;7.32;100.00
40171;BME280;37650;52.790;18.268;2023-02-17T15:52:54;99550.27;;;7.35;100.00
40171;BME280;37650;52.790;18.268;2023-02-17T15:56:19;99546.66;;;7.37;100.00
40171;BME280;37650;52.790;18.268;2023-02-17T15:59:43;99542.41;;;7.39;100.00
40171;BME280;37650;52.790;18.268;2023-02-17T16:03:04;99533.92;;;7.42;100.00
40171;BME280;37650;52.790;18.268;2023-02-17T16:06:32;99528.91;;;7.46;100.00
40171;BME280;37650;52.790;18.268;2023-02-17T16:09:54;99523.05;;;7.49;100.00
40171;BME280;37650;52.790;18.268;2023-02-17T16:13:16;99518.83;;;7.54;100.00
40171;BME280;37650;52.790;18.268;2023-02-17T16:16:40;99516.05;;;7.58;100.00
40171;BME280;37650;52.790;18.268;2023-02-17T16:20:02;99514.08;;;7.64;100.00
40171;BME280;37650;52.790;18.268;2023-02-17T16:23:28;99507.20;;;7.70;100.00
40171;BME280;37650;52.790;18.268;2023-02-17T16:26:50;99505.39;;;7.76;100.00
40171;BME280;37650;52.790;18.268;2023-02-17T16:30:17;99502.88;;;7.82;100.00
40171;BME280;37650;52.790;18.268;2023-02-17T16:33:41;99503.39;;;7.87;100.00
40171;BME280;37650;52.790;18.268;2023-02-17T16:37:13;99504.18;;;7.93;100.00
40171;BME280;37650;52.790;18.268;2023-02-17T16:40:44;99490.88;;;7.98;100.00
40171;BME280;37650;52.790;18.268;2023-02-17T16:44:39;99485.02;;;8.06;100.00
40171;BME280;37650;52.790;18.268;2023-02-17T16:48:06;99483.48;;;8.09;100.00
40171;BME280;37650;52.790;18.268;2023-02-17T16:51:28;99479.12;;;8.13;100.00
40171;BME280;37650;52.790;18.268;2023-02-17T16:54:52;99474.67;;;8.14;100.00
40171;BME280;37650;52.790;18.268;2023-02-17T16:58:20;99472.13;;;8.17;100.00
40171;BME280;37650;52.790;18.268;2023-02-17T17:02:07;99472.55;;;8.19;100.00
40171;BME280;37650;52.790;18.268;2023-02-17T17:05:32;99465.83;;;8.22;100.00
40171;BME280;37650;52.790;18.268;2023-02-17T17:08:55;99453.48;;;8.24;100.00
40171;BME280;37650;52.790;18.268;2023-02-17T17:12:21;99438.50;;;8.27;100.00
40171;BME280;37650;52.790;18.268;2023-02-17T17:15:44;99441.52;;;8.31;100.00
40171;BME280;37650;52.790;18.268;2023-02-17T17:19:06;99435.31;;;8.33;100.00
40171;BME280;37650;52.790;18.268;2023-02-17T17:22:36;99426.85;;;8.34;100.00
40171;BME280;37650;52.790;18.268;2023-02-17T17:26:33;99425.11;;;8.38;100.00
40171;BME280;37650;52.790;18.268;2023-02-17T17:29:58;99423.16;;;8.43;100.00
40171;BME280;37650;52.790;18.268;2023-02-17T17:33:20;99415.38;;;8.45;100.00
40171;BME280;37650;52.790;18.268;2023-02-17T17:36:44;99422.33;;;8.50;100.00
40171;BME280;37650;52.790;18.268;2023-02-17T17:40:23;99423.30;;;8.56;100.00
40171;BME280;37650;52.790;18.268;2023-02-17T17:43:46;99429.80;;;8.59;100.00
40171;BME280;37650;52.790;18.268;2023-02-17T17:47:13;99424.77;;;8.62;100.00
40171;BME280;37650;52.790;18.268;2023-02-17T17:50:37;99424.65;;;8.65;100.00
40171;BME280;37650;52.790;18.268;2023-02-17T17:53:59;99419.98;;;8.67;100.00
40171;BME280;37650;52.790;18.268;2023-02-17T17:57:21;99418.81;;;8.70;100.00
40171;BME280;37650;52.790;18.268;2023-02-17T18:00:46;99410.50;;;8.72;100.00
40171;BME280;37650;52.790;18.268;2023-02-17T18:04:11;99417.40;;;8.74;100.00
40171;BME280;37650;52.790;18.268;2023-02-17T18:07:36;99416.23;;;8.77;100.00
40171;BME280;37650;52.790;18.268;2023-02-17T18:11:07;99411.36;;;8.80;100.00
40171;BME280;37650;52.790;18.268;2023-02-17T18:14:37;99408.61;;;8.83;100.00
40171;BME280;37650;52.790;18.268;2023-02-17T18:18:01;99403.98;;;8.85;100.00
40171;BME280;37650;52.790;18.268;2023-02-17T18:21:24;99401.35;;;8.89;100.00
40171;BME280;37650;52.790;18.268;2023-02-17T18:24:47;99399.95;;;8.93;100.00
40171;BME280;37650;52.790;18.268;2023-02-17T18:28:09;99398.71;;;8.97;100.00
40171;BME280;37650;52.790;18.268;2023-02-17T18:31:33;99394.35;;;9.01;100.00
40171;BME280;37650;52.790;18.268;2023-02-17T18:34:57;99387.36;;;9.04;100.00
40171;BME280;37650;52.790;18.268;2023-02-17T18:38:22;99381.27;;;9.07;100.00
40171;BME280;37650;52.790;18.268;2023-02-17T18:41:45;99372.07;;;9.09;100.00
40171;BME280;37650;52.790;18.268;2023-02-17T18:45:08;99377.77;;;9.11;100.00
40171;BME280;37650;52.790;18.268;2023-02-17T18:48:30;99375.62;;;9.12;100.00
40171;BME280;37650;52.790;18.268;2023-02-17T18:51:55;99373.08;;;9.14;100.00
40171;BME280;37650;52.790;18.268;2023-02-17T18:55:21;99374.42;;;9.15;100.00
40171;BME280;37650;52.790;18.268;2023-02-17T18:58:43;99369.47;;;9.16;100.00
40171;BME280;37650;52.790;18.268;2023-02-17T19:02:08;99362.14;;;9.19;100.00
40171;BME280;37650;52.790;18.268;2023-02-17T19:05:30;99366.05;;;9.22;100.00
40171;BME280;37650;52.790;18.268;2023-02-17T19:08:56;99366.27;;;9.24;100.00
40171;BME280;37650;52.790;18.268;2023-02-17T19:12:18;99387.88;;;9.26;100.00
40171;BME280;37650;52.790;18.268;2023-02-17T19:15:40;99396.94;;;9.27;100.00
40171;BME280;37650;52.790;18.268;2023-02-17T19:19:03;99385.89;;;9.28;100.00
40171;BME280;37650;52.790;18.268;2023-02-17T19:22:26;99376.21;;;9.25;100.00
40171;BME280;37650;52.790;18.268;2023-02-17T19:25:47;99383.04;;;9.22;100.00
40171;BME280;37650;52.790;18.268;2023-02-17T19:29:10;99385.10;;;9.22;100.00
40171;BME280;37650;52.790;18.268;2023-02-17T19:32:37;99386.11;;;9.27;100.00